createdAt,value
2019-03-29T00:00:06.701Z,0
2019-03-29T00:00:47.029Z,0
2019-03-29T00:01:27.469Z,0
2019-03-29T00:02:07.844Z,0
2019-03-29T00:02:48.224Z,0
2019-03-29T00:03:28.646Z,0
2019-03-29T00:04:08.994Z,0
2019-03-29T00:04:49.377Z,0
2019-03-29T00:05:29.804Z,0
2019-03-29T00:06:10.873Z,0
2019-03-29T00:06:50.653Z,0
2019-03-29T00:07:39.228Z,0
2019-03-29T00:08:11.460Z,0
2019-03-29T00:08:51.861Z,0
2019-03-29T00:09:32.310Z,0
2019-03-29T00:10:12.670Z,0
2019-03-29T00:10:53.073Z,0
2019-03-29T00:11:33.548Z,0
2019-03-29T00:12:13.904Z,0
2019-03-29T00:12:54.343Z,0
2019-03-29T00:13:34.763Z,0
2019-03-29T00:14:15.801Z,0
2019-03-29T00:14:55.615Z,0
2019-03-29T00:15:36.929Z,0
2019-03-29T00:16:17.357Z,0
2019-03-29T00:16:57.707Z,0
2019-03-29T00:17:38.121Z,0
2019-03-29T00:18:18.525Z,0
2019-03-29T00:18:58.952Z,0
2019-03-29T00:19:39.399Z,0
2019-03-29T00:20:20.171Z,0
2019-03-29T00:21:00.199Z,0
2019-03-29T00:21:40.662Z,0
2019-03-29T00:22:21.025Z,0
2019-03-29T00:23:01.435Z,0
2019-03-29T00:23:41.835Z,0
2019-03-29T00:24:22.303Z,0
2019-03-29T00:25:02.664Z,0
2019-03-29T00:25:43.081Z,0
2019-03-29T00:26:23.498Z,0
2019-03-29T00:27:04.044Z,0
2019-03-29T00:27:44.901Z,0
2019-03-29T00:28:24.868Z,0
2019-03-29T00:29:05.259Z,0
2019-03-29T00:29:45.682Z,0
2019-03-29T00:30:26.066Z,0
2019-03-29T00:31:06.489Z,0
2019-03-29T00:31:46.885Z,0
2019-03-29T00:34:16.020Z,0
2019-03-29T00:34:55.983Z,0
2019-03-29T00:35:36.427Z,0
2019-03-29T00:36:16.808Z,0
2019-03-29T00:36:57.226Z,0
2019-03-29T00:37:37.644Z,0
2019-03-29T00:38:18.063Z,0
2019-03-29T00:38:58.518Z,0
2019-03-29T00:39:38.865Z,0
2019-03-29T00:40:19.271Z,0
2019-03-29T00:40:59.650Z,0
2019-03-29T00:41:40.154Z,0
2019-03-29T00:42:20.552Z,0
2019-03-29T00:43:00.979Z,0
2019-03-29T00:43:41.389Z,0
2019-03-29T00:44:21.805Z,0
2019-03-29T00:45:02.221Z,0
2019-03-29T00:45:42.620Z,0
2019-03-29T00:46:23.055Z,0
2019-03-29T00:47:04.063Z,0
2019-03-29T00:47:43.844Z,0
2019-03-29T00:48:24.290Z,0
2019-03-29T00:49:04.630Z,0
2019-03-29T00:49:45.063Z,0
2019-03-29T00:50:25.456Z,0
2019-03-29T00:51:05.892Z,0
2019-03-29T00:51:46.324Z,0
2019-03-29T00:52:26.737Z,0
2019-03-29T00:53:07.174Z,0
2019-03-29T00:53:47.548Z,0
2019-03-29T00:54:28.104Z,0
2019-03-29T00:55:08.378Z,0
2019-03-29T00:55:48.793Z,0
2019-03-29T00:56:29.186Z,0
2019-03-29T00:57:09.603Z,0
2019-03-29T00:57:50.033Z,0
2019-03-29T00:58:30.437Z,0
2019-03-29T00:59:10.832Z,0
2019-03-29T00:59:51.263Z,0
2019-03-29T01:00:32.281Z,0
2019-03-29T01:01:12.139Z,0
2019-03-29T01:01:53.072Z,0
2019-03-29T01:02:32.969Z,0
2019-03-29T01:03:13.325Z,0
2019-03-29T01:03:53.718Z,0
2019-03-29T01:04:34.131Z,0
2019-03-29T01:05:14.578Z,0
2019-03-29T01:05:54.959Z,0
2019-03-29T01:06:35.281Z,0
2019-03-29T01:07:15.668Z,0
2019-03-29T01:08:06.939Z,0
2019-03-29T01:08:37.303Z,0
2019-03-29T01:09:16.859Z,0
2019-03-29T01:09:57.296Z,0
2019-03-29T01:10:37.724Z,0
2019-03-29T01:11:18.070Z,0
2019-03-29T01:11:58.525Z,0
2019-03-29T01:12:38.906Z,0
2019-03-29T01:13:19.328Z,0
2019-03-29T01:13:59.743Z,0
2019-03-29T01:14:40.163Z,0
2019-03-29T01:15:20.617Z,0
2019-03-29T01:16:01.159Z,0
2019-03-29T01:16:41.427Z,0
2019-03-29T01:17:21.837Z,0
2019-03-29T01:18:02.277Z,0
2019-03-29T01:18:42.665Z,0
2019-03-29T01:19:23.054Z,0
2019-03-29T01:20:03.430Z,0
2019-03-29T01:20:43.847Z,0
2019-03-29T01:21:24.214Z,0
2019-03-29T01:22:05.234Z,0
2019-03-29T01:22:45.006Z,0
2019-03-29T01:27:36.204Z,0
2019-03-29T01:28:16.473Z,0
2019-03-29T01:28:56.869Z,0
2019-03-29T01:29:37.270Z,0
2019-03-29T01:30:17.741Z,0
2019-03-29T01:30:58.083Z,0
2019-03-29T01:31:38.484Z,0
2019-03-29T01:32:18.923Z,0
2019-03-29T01:32:59.375Z,0
2019-03-29T01:33:39.704Z,0
2019-03-29T01:34:20.115Z,0
2019-03-29T01:35:00.505Z,0
2019-03-29T01:35:40.898Z,0
2019-03-29T01:36:21.326Z,0
2019-03-29T01:37:01.734Z,0
2019-03-29T01:37:42.105Z,0
2019-03-29T01:38:24.292Z,0
2019-03-29T01:39:02.945Z,0
2019-03-29T01:39:43.298Z,0
2019-03-29T01:40:23.711Z,0
2019-03-29T01:41:04.126Z,0
2019-03-29T01:41:44.440Z,0
2019-03-29T01:42:24.817Z,0
2019-03-29T01:43:05.200Z,0
2019-03-29T01:43:45.617Z,0
2019-03-29T01:44:26.002Z,0
2019-03-29T01:45:06.472Z,0
2019-03-29T01:45:46.862Z,0
2019-03-29T01:46:27.297Z,0
2019-03-29T01:47:07.688Z,0
2019-03-29T01:47:48.123Z,0
2019-03-29T01:48:28.455Z,0
2019-03-29T01:49:08.882Z,0
2019-03-29T01:49:49.297Z,0
2019-03-29T01:50:29.719Z,0
2019-03-29T01:51:15.818Z,0
2019-03-29T01:51:56.201Z,0
2019-03-29T01:52:36.611Z,0
2019-03-29T01:53:17.003Z,0
2019-03-29T01:53:57.405Z,0
2019-03-29T01:54:37.743Z,0
2019-03-29T01:55:18.162Z,0
2019-03-29T01:55:58.536Z,0
2019-03-29T01:56:38.991Z,0
2019-03-29T01:57:19.419Z,0
2019-03-29T01:57:59.820Z,0
2019-03-29T01:58:40.224Z,0
2019-03-29T01:59:20.558Z,0
2019-03-29T02:00:00.966Z,0
2019-03-29T02:00:41.380Z,0
2019-03-29T02:01:21.759Z,0
2019-03-29T02:02:02.181Z,0
2019-03-29T02:02:42.562Z,0
2019-03-29T02:03:22.972Z,0
2019-03-29T02:04:05.752Z,0
2019-03-29T02:04:43.811Z,0
2019-03-29T02:05:24.174Z,0
2019-03-29T02:06:04.600Z,0
2019-03-29T02:06:45.699Z,0
2019-03-29T02:07:25.373Z,0
2019-03-29T02:08:05.771Z,0
2019-03-29T02:08:46.180Z,0
2019-03-29T02:09:26.625Z,0
2019-03-29T02:10:07.089Z,0
2019-03-29T02:10:47.463Z,0
2019-03-29T02:11:27.832Z,0
2019-03-29T02:12:08.281Z,0
2019-03-29T02:12:48.637Z,0
2019-03-29T02:13:29.009Z,0
2019-03-29T02:14:09.457Z,0
2019-03-29T02:14:49.781Z,0
2019-03-29T02:15:30.170Z,0
2019-03-29T02:16:10.568Z,0
2019-03-29T02:16:51.020Z,0
2019-03-29T02:17:31.408Z,0
2019-03-29T02:18:11.727Z,0
2019-03-29T02:18:52.120Z,0
2019-03-29T02:19:32.543Z,0
2019-03-29T02:20:14.023Z,0
2019-03-29T02:20:54.388Z,0
2019-03-29T02:21:34.812Z,0
2019-03-29T02:22:15.084Z,0
2019-03-29T02:22:55.477Z,0
2019-03-29T02:23:36.072Z,0
2019-03-29T02:24:16.511Z,0
2019-03-29T02:24:56.824Z,0
2019-03-29T02:25:37.176Z,0
2019-03-29T02:26:17.563Z,0
2019-03-29T02:26:58.038Z,0
2019-03-29T02:27:38.346Z,0
2019-03-29T02:28:18.980Z,0
2019-03-29T02:28:59.124Z,0
2019-03-29T02:29:39.547Z,0
2019-03-29T02:30:19.900Z,0
2019-03-29T02:31:00.311Z,0
2019-03-29T02:31:42.232Z,0
2019-03-29T02:32:21.128Z,0
2019-03-29T02:33:01.544Z,0
2019-03-29T02:33:41.916Z,0
2019-03-29T02:34:22.939Z,0
2019-03-29T02:35:07.287Z,0
2019-03-29T02:35:47.109Z,0
2019-03-29T02:36:27.485Z,0
2019-03-29T02:37:07.896Z,0
2019-03-29T02:37:48.317Z,0
2019-03-29T02:38:28.617Z,0
2019-03-29T02:39:09.004Z,0
2019-03-29T02:39:49.464Z,0
2019-03-29T02:40:29.999Z,0
2019-03-29T02:41:10.385Z,0
2019-03-29T02:41:50.774Z,0
2019-03-29T02:42:31.192Z,0
2019-03-29T02:43:11.597Z,0
2019-03-29T02:43:52.021Z,0
2019-03-29T02:44:32.434Z,0
2019-03-29T02:45:12.828Z,0
2019-03-29T02:45:53.247Z,0
2019-03-29T02:46:33.663Z,0
2019-03-29T02:47:14.086Z,0
2019-03-29T02:47:54.487Z,0
2019-03-29T02:48:34.888Z,0
2019-03-29T02:49:17.221Z,0
2019-03-29T02:49:57.619Z,0
2019-03-29T02:50:37.886Z,0
2019-03-29T02:51:19.356Z,0
2019-03-29T02:51:59.690Z,0
2019-03-29T02:52:40.059Z,0
2019-03-29T02:53:20.484Z,0
2019-03-29T02:54:00.813Z,0
2019-03-29T02:54:41.193Z,0
2019-03-29T02:55:21.586Z,0
2019-03-29T02:56:01.945Z,0
2019-03-29T02:56:42.373Z,0
2019-03-29T02:57:22.796Z,0
2019-03-29T02:58:03.174Z,0
2019-03-29T02:58:43.578Z,0
2019-03-29T02:59:23.995Z,0
2019-03-29T03:00:04.415Z,0
2019-03-29T03:00:44.811Z,0
2019-03-29T03:01:25.248Z,0
2019-03-29T03:02:05.647Z,0
2019-03-29T03:02:46.014Z,0
2019-03-29T03:03:26.413Z,0
2019-03-29T03:04:06.804Z,0
2019-03-29T03:04:47.169Z,0
2019-03-29T03:08:04.423Z,0
2019-03-29T03:09:11.719Z,0
2019-03-29T03:09:52.415Z,0
2019-03-29T03:12:07.483Z,0
2019-03-29T03:12:47.725Z,0
2019-03-29T03:13:28.078Z,0
2019-03-29T03:14:08.555Z,0
2019-03-29T03:14:48.925Z,0
2019-03-29T03:15:29.363Z,0
2019-03-29T03:16:09.728Z,0
2019-03-29T03:16:50.125Z,0
2019-03-29T03:17:30.566Z,0
2019-03-29T03:18:10.917Z,0
2019-03-29T03:18:51.310Z,0
2019-03-29T03:19:31.672Z,0
2019-03-29T03:20:14.923Z,0
2019-03-29T03:20:52.501Z,0
2019-03-29T03:21:32.978Z,0
2019-03-29T03:22:13.300Z,0
2019-03-29T03:22:53.679Z,0
2019-03-29T03:23:34.050Z,0
2019-03-29T03:24:14.473Z,0
2019-03-29T03:24:54.850Z,0
2019-03-29T03:25:35.285Z,0
2019-03-29T03:26:15.682Z,0
2019-03-29T03:26:56.030Z,0
2019-03-29T03:27:36.481Z,0
2019-03-29T03:28:16.851Z,0
2019-03-29T03:28:57.243Z,0
2019-03-29T03:29:37.660Z,0
2019-03-29T03:30:18.021Z,0
2019-03-29T03:30:58.462Z,0
2019-03-29T03:31:38.830Z,0
2019-03-29T03:32:19.275Z,0
2019-03-29T03:32:59.663Z,0
2019-03-29T03:33:40.101Z,0
2019-03-29T03:34:20.512Z,0
2019-03-29T03:35:00.999Z,0
2019-03-29T03:35:41.321Z,0
2019-03-29T03:36:21.752Z,0
2019-03-29T03:37:02.117Z,0
2019-03-29T03:37:42.508Z,0
2019-03-29T03:38:22.879Z,0
2019-03-29T03:39:03.272Z,0
2019-03-29T03:39:43.610Z,0
2019-03-29T03:40:24.076Z,0
2019-03-29T03:41:04.437Z,0
2019-03-29T03:41:44.829Z,0
2019-03-29T03:42:25.284Z,0
2019-03-29T03:43:05.588Z,0
2019-03-29T03:43:45.999Z,0
2019-03-29T03:44:26.378Z,0
2019-03-29T03:45:06.772Z,0
2019-03-29T03:45:47.199Z,0
2019-03-29T03:46:27.653Z,0
2019-03-29T03:47:08.009Z,0
2019-03-29T03:47:48.376Z,0
2019-03-29T03:48:28.805Z,0
2019-03-29T03:49:09.180Z,0
2019-03-29T03:49:49.527Z,0
2019-03-29T03:50:29.901Z,0
2019-03-29T03:51:10.361Z,0
2019-03-29T03:51:50.727Z,0
2019-03-29T03:52:31.118Z,0
2019-03-29T03:53:11.517Z,0
2019-03-29T03:53:51.948Z,0
2019-03-29T03:54:32.307Z,0
2019-03-29T03:55:12.722Z,0
2019-03-29T03:55:53.219Z,0
2019-03-29T03:56:33.513Z,0
2019-03-29T03:57:13.906Z,0
2019-03-29T03:57:57.605Z,0
2019-03-29T03:58:34.698Z,0
2019-03-29T03:59:15.094Z,0
2019-03-29T03:59:55.491Z,0
2019-03-29T04:00:35.944Z,0
2019-03-29T04:01:16.318Z,0
2019-03-29T04:01:56.703Z,0
2019-03-29T04:02:37.089Z,0
2019-03-29T04:03:17.535Z,0
2019-03-29T04:03:57.932Z,0
2019-03-29T04:04:38.423Z,0
2019-03-29T04:05:18.747Z,0
2019-03-29T04:05:59.206Z,0
2019-03-29T04:06:39.573Z,0
2019-03-29T04:07:20.013Z,0
2019-03-29T04:08:00.359Z,0
2019-03-29T04:08:40.741Z,0
2019-03-29T04:09:21.146Z,0
2019-03-29T04:10:01.555Z,0
2019-03-29T04:10:42.345Z,0
2019-03-29T04:11:22.367Z,0
2019-03-29T04:12:02.795Z,0
2019-03-29T04:12:43.115Z,0
2019-03-29T04:13:23.518Z,0
2019-03-29T04:14:03.894Z,0
2019-03-29T04:14:44.316Z,0
2019-03-29T04:15:24.857Z,0
2019-03-29T04:16:05.419Z,0
2019-03-29T04:16:45.678Z,0
2019-03-29T04:17:26.074Z,0
2019-03-29T04:18:06.529Z,0
2019-03-29T04:18:46.890Z,0
2019-03-29T04:19:27.296Z,0
2019-03-29T04:20:07.988Z,0
2019-03-29T04:20:48.392Z,0
2019-03-29T04:21:28.814Z,0
2019-03-29T04:22:09.238Z,0
2019-03-29T04:22:49.695Z,0
2019-03-29T04:23:30.041Z,0
2019-03-29T04:24:10.497Z,0
2019-03-29T04:24:50.872Z,0
2019-03-29T04:25:31.313Z,0
2019-03-29T04:26:11.701Z,0
2019-03-29T04:26:52.063Z,0
2019-03-29T04:27:32.462Z,0
2019-03-29T05:07:17.429Z,36
2019-03-29T05:07:57.833Z,40
2019-03-29T05:08:38.241Z,40
2019-03-29T05:09:18.590Z,48
2019-03-29T05:09:59.015Z,52
2019-03-29T05:10:39.379Z,52
2019-03-29T05:11:19.755Z,60
2019-03-29T05:12:00.186Z,60
2019-03-29T05:12:40.543Z,68
2019-03-29T05:13:20.966Z,72
2019-03-29T05:14:01.367Z,76
2019-03-29T05:14:41.752Z,80
2019-03-29T05:15:22.155Z,84
2019-03-29T05:16:02.535Z,92
2019-03-29T05:16:43.448Z,100
2019-03-29T05:17:24.600Z,104
2019-03-29T05:18:05.242Z,108
2019-03-29T05:18:45.864Z,116
2019-03-29T05:19:26.229Z,124
2019-03-29T05:20:06.859Z,128
2019-03-29T05:20:47.318Z,140
2019-03-29T05:21:27.706Z,148
2019-03-29T05:22:08.039Z,152
2019-03-29T05:22:48.423Z,164
2019-03-29T05:23:28.839Z,172
2019-03-29T05:24:09.197Z,180
2019-03-29T05:24:49.609Z,192
2019-03-29T05:25:30.011Z,204
2019-03-29T05:26:10.374Z,220
2019-03-29T05:26:50.750Z,228
2019-03-29T05:27:31.158Z,244
2019-03-29T05:30:55.989Z,344
2019-03-29T05:31:36.068Z,380
2019-03-29T05:32:16.484Z,388
2019-03-29T05:32:57.136Z,416
2019-03-29T05:33:37.625Z,468
2019-03-29T05:34:17.982Z,484
2019-03-29T05:34:58.462Z,520
2019-03-29T05:35:38.870Z,568
2019-03-29T05:36:19.237Z,620
2019-03-29T05:36:59.650Z,660
2019-03-29T05:37:40.069Z,712
2019-03-29T05:38:20.478Z,744
2019-03-29T05:39:00.930Z,848
2019-03-29T05:39:41.364Z,892
2019-03-29T05:40:34.215Z,904
2019-03-29T05:41:03.167Z,1020
2019-03-29T05:41:44.433Z,1116
2019-03-29T05:42:26.770Z,1200
2019-03-29T05:43:07.104Z,1268
2019-03-29T05:45:59.775Z,1704
2019-03-29T05:49:55.233Z,2948
2019-03-29T05:50:36.773Z,2908
2019-03-29T05:51:15.695Z,3072
2019-03-29T05:51:56.102Z,3248
2019-03-29T05:52:36.557Z,3456
2019-03-29T05:53:16.928Z,3808
2019-03-29T05:53:57.354Z,3952
2019-03-29T05:54:37.725Z,4176
2019-03-29T05:55:18.707Z,4480
2019-03-29T05:55:58.538Z,5172
2019-03-29T05:56:38.982Z,5152
2019-03-29T05:57:19.354Z,5524
2019-03-29T05:57:59.742Z,5768
2019-03-29T05:58:40.112Z,5688
2019-03-29T05:59:20.607Z,6024
2019-03-29T06:00:01.112Z,5832
2019-03-29T06:04:04.011Z,5172
2019-03-29T06:04:44.357Z,5108
2019-03-29T06:05:24.800Z,5088
2019-03-29T06:06:09.224Z,5224
2019-03-29T06:06:49.576Z,5516
2019-03-29T06:07:30.005Z,5672
2019-03-29T06:08:10.552Z,5664
2019-03-29T06:08:50.786Z,5652
2019-03-29T06:09:31.203Z,5720
2019-03-29T06:10:11.696Z,5776
2019-03-29T06:10:52.189Z,6148
2019-03-29T06:11:32.661Z,6368
2019-03-29T06:12:13.135Z,6340
2019-03-29T06:12:53.407Z,6460
2019-03-29T06:13:33.855Z,6736
2019-03-29T06:14:14.312Z,6884
2019-03-29T06:14:54.638Z,7044
2019-03-29T06:15:35.082Z,7048
2019-03-29T06:16:15.441Z,7116
2019-03-29T06:16:55.852Z,7280
2019-03-29T06:17:47.829Z,7644
2019-03-29T06:18:17.652Z,7756
2019-03-29T06:18:58.133Z,8092
2019-03-29T06:19:38.488Z,8232
2019-03-29T06:20:18.897Z,8160
2019-03-29T06:20:59.299Z,8216
2019-03-29T06:21:40.232Z,8396
2019-03-29T06:22:20.644Z,8516
2019-03-29T06:23:01.089Z,8420
2019-03-29T06:23:41.458Z,8256
2019-03-29T06:24:21.876Z,8116
2019-03-29T06:25:02.325Z,8112
2019-03-29T06:25:42.728Z,8100
2019-03-29T06:26:23.073Z,8240
2019-03-29T06:27:03.410Z,8232
2019-03-29T06:27:43.817Z,8156
2019-03-29T06:28:24.264Z,8184
2019-03-29T06:29:04.725Z,8308
2019-03-29T06:29:45.163Z,8636
2019-03-29T06:30:25.539Z,8840
2019-03-29T06:31:05.944Z,8664
2019-03-29T06:31:46.344Z,8748
2019-03-29T06:32:26.724Z,8808
2019-03-29T06:33:07.134Z,8668
2019-03-29T06:33:47.568Z,8788
2019-03-29T06:34:27.928Z,8952
2019-03-29T06:35:08.378Z,9116
2019-03-29T06:35:48.801Z,9156
2019-03-29T06:36:29.198Z,9312
2019-03-29T06:37:09.857Z,9340
2019-03-29T06:37:50.462Z,9428
2019-03-29T06:38:30.934Z,9708
2019-03-29T06:39:11.309Z,9800
2019-03-29T06:39:51.718Z,9912
2019-03-29T06:40:32.230Z,10144
2019-03-29T06:41:12.634Z,10400
2019-03-29T06:41:52.997Z,10684
2019-03-29T06:42:33.446Z,10936
2019-03-29T06:43:13.850Z,11036
2019-03-29T06:43:54.271Z,10964
2019-03-29T06:44:34.638Z,10936
2019-03-29T06:45:15.030Z,10964
2019-03-29T06:45:55.432Z,11228
2019-03-29T06:46:36.758Z,11440
2019-03-29T06:47:16.939Z,11420
2019-03-29T06:47:57.352Z,11624
2019-03-29T06:48:37.835Z,11596
2019-03-29T06:49:18.271Z,11364
2019-03-29T06:49:58.655Z,11304
2019-03-29T06:50:39.119Z,11564
2019-03-29T06:51:19.619Z,11608
2019-03-29T06:51:59.930Z,11484
2019-03-29T06:52:40.554Z,11384
2019-03-29T06:53:21.599Z,11168
2019-03-29T06:54:01.498Z,11284
2019-03-29T06:54:41.936Z,11288
2019-03-29T06:55:22.433Z,11432
2019-03-29T06:56:02.868Z,11428
2019-03-29T06:56:43.342Z,11500
2019-03-29T06:57:23.768Z,11656
2019-03-29T06:58:04.807Z,12016
2019-03-29T06:58:45.199Z,11792
2019-03-29T06:59:25.782Z,11804
2019-03-29T07:00:07.029Z,11660
2019-03-29T07:00:46.896Z,11484
2019-03-29T07:01:27.226Z,11732
2019-03-29T07:02:07.859Z,11832
2019-03-29T07:02:48.321Z,11860
2019-03-29T07:03:28.781Z,11940
2019-03-29T07:04:09.170Z,12124
2019-03-29T07:04:49.827Z,11772
2019-03-29T07:05:30.378Z,11412
2019-03-29T07:06:11.090Z,11372
2019-03-29T07:06:51.610Z,11632
2019-03-29T07:07:31.917Z,11748
2019-03-29T07:08:12.345Z,11604
2019-03-29T07:08:52.751Z,11164
2019-03-29T07:09:33.103Z,10796
2019-03-29T07:10:13.604Z,10484
2019-03-29T07:10:54.935Z,10160
2019-03-29T07:11:35.383Z,10124
2019-03-29T07:12:15.818Z,9868
2019-03-29T07:12:56.833Z,9616
2019-03-29T07:13:37.279Z,9252
2019-03-29T07:14:17.757Z,9112
2019-03-29T07:14:58.196Z,8984
2019-03-29T07:15:38.642Z,8848
2019-03-29T07:16:19.063Z,8612
2019-03-29T07:16:59.532Z,8548
2019-03-29T07:19:19.978Z,8768
2019-03-29T07:20:00.437Z,8880
2019-03-29T07:20:40.846Z,9020
2019-03-29T07:21:22.176Z,9196
2019-03-29T07:22:01.841Z,9192
2019-03-29T07:22:42.216Z,9020
2019-03-29T07:23:22.729Z,8700
2019-03-29T07:24:03.141Z,8396
2019-03-29T07:24:43.547Z,8184
2019-03-29T07:25:24.008Z,7880
2019-03-29T07:26:04.449Z,7652
2019-03-29T07:26:44.904Z,7532
2019-03-29T07:27:25.266Z,7464
2019-03-29T07:28:05.670Z,7384
2019-03-29T07:28:46.141Z,7284
2019-03-29T07:29:26.489Z,7168
2019-03-29T07:30:06.893Z,7120
2019-03-29T07:30:47.532Z,7244
2019-03-29T07:31:28.621Z,7328
2019-03-29T07:32:08.898Z,7412
2019-03-29T07:32:49.747Z,7596
2019-03-29T07:33:30.681Z,7648
2019-03-29T07:34:11.538Z,7584
2019-03-29T07:34:52.670Z,7248
2019-03-29T07:35:35.077Z,7100
2019-03-29T07:36:16.567Z,6916
2019-03-29T07:36:59.185Z,6732
2019-03-29T07:37:41.645Z,6596
2019-03-29T07:38:24.182Z,6388
2019-03-29T07:39:05.332Z,6028
2019-03-29T07:39:45.775Z,5868
2019-03-29T07:40:26.198Z,5756
2019-03-29T07:41:06.673Z,5528
2019-03-29T07:41:47.024Z,5296
2019-03-29T07:42:27.435Z,5096
2019-03-29T07:43:07.899Z,4992
2019-03-29T07:43:48.268Z,4928
2019-03-29T07:44:32.402Z,4804
2019-03-29T07:45:12.786Z,4660
2019-03-29T07:45:53.179Z,4516
2019-03-29T07:46:33.703Z,4324
2019-03-29T07:47:16.777Z,4184
2019-03-29T07:47:57.250Z,4104
2019-03-29T07:48:40.373Z,4048
2019-03-29T07:49:18.141Z,4004
2019-03-29T07:49:58.660Z,3956
2019-03-29T07:50:39.162Z,3908
2019-03-29T07:51:19.689Z,3832
2019-03-29T07:52:00.271Z,3780
2019-03-29T07:52:40.763Z,3656
2019-03-29T07:53:21.250Z,3576
2019-03-29T07:54:01.697Z,3500
2019-03-29T07:54:42.335Z,3444
2019-03-29T07:55:22.759Z,3396
2019-03-29T07:56:03.175Z,3360
2019-03-29T07:56:43.695Z,3288
2019-03-29T07:57:24.204Z,3200
2019-03-29T07:58:04.745Z,3136
2019-03-29T07:58:45.173Z,3092
2019-03-29T07:59:27.450Z,3072
2019-03-29T08:00:09.715Z,3036
2019-03-29T08:00:50.877Z,2992
2019-03-29T08:01:32.543Z,2968
2019-03-29T08:02:11.776Z,2948
2019-03-29T08:02:55.086Z,2932
2019-03-29T08:03:35.193Z,2916
2019-03-29T08:04:15.595Z,2900
2019-03-29T08:04:56.048Z,2880
2019-03-29T08:05:36.479Z,2856
2019-03-29T08:06:16.881Z,2832
2019-03-29T08:06:57.330Z,2820
2019-03-29T08:07:37.754Z,2800
2019-03-29T08:08:24.210Z,2788
2019-03-29T08:08:58.611Z,2768
2019-03-29T08:09:39.013Z,2756
2019-03-29T08:10:26.071Z,2736
2019-03-29T08:11:00.513Z,2720
2019-03-29T08:11:46.360Z,2688
2019-03-29T08:12:21.999Z,2664
2019-03-29T08:13:02.008Z,2648
2019-03-29T08:13:46.333Z,2636
2019-03-29T08:14:26.720Z,2616
2019-03-29T08:15:09.369Z,2604
2019-03-29T08:15:47.776Z,2596
2019-03-29T08:16:28.229Z,2584
2019-03-29T08:17:09.448Z,2572
2019-03-29T08:17:49.882Z,2560
2019-03-29T08:18:30.282Z,2540
2019-03-29T08:19:10.655Z,2520
2019-03-29T08:20:05.685Z,2504
2019-03-29T08:20:43.457Z,2480
2019-03-29T08:21:12.527Z,2456
2019-03-29T08:21:52.935Z,2456
2019-03-29T08:22:33.299Z,2444
2019-03-29T08:23:13.759Z,2444
2019-03-29T08:23:54.218Z,2448
2019-03-29T08:24:34.704Z,2444
2019-03-29T08:25:15.096Z,2452
2019-03-29T08:25:55.491Z,2448
2019-03-29T08:26:35.963Z,2436
2019-03-29T08:27:16.364Z,2424
2019-03-29T08:27:56.833Z,2408
2019-03-29T08:28:37.234Z,2400
2019-03-29T08:29:17.661Z,2396
2019-03-29T08:29:58.122Z,2376
2019-03-29T08:30:38.566Z,2364
2019-03-29T08:31:18.896Z,2348
2019-03-29T08:32:01.751Z,2328
2019-03-29T08:32:42.169Z,2320
2019-03-29T08:37:15.807Z,2284
2019-03-29T08:37:56.010Z,2268
2019-03-29T08:38:37.384Z,2260
2019-03-29T08:39:27.584Z,2256
2019-03-29T08:39:58.474Z,2252
2019-03-29T08:40:38.944Z,2236
2019-03-29T08:41:19.453Z,2224
2019-03-29T08:42:00.785Z,2216
2019-03-29T08:42:42.549Z,2208
2019-03-29T08:43:23.181Z,2196
2019-03-29T08:44:03.639Z,2188
2019-03-29T08:44:44.024Z,2184
2019-03-29T08:45:24.449Z,2180
2019-03-29T08:46:05.619Z,2176
2019-03-29T08:46:46.120Z,2168
2019-03-29T08:47:26.740Z,2160
2019-03-29T08:48:07.031Z,2156
2019-03-29T08:48:48.414Z,2152
2019-03-29T08:49:28.757Z,2140
2019-03-29T08:50:09.209Z,2128
2019-03-29T08:50:49.787Z,2112
2019-03-29T08:51:30.152Z,2108
2019-03-29T08:52:12.153Z,2108
2019-03-29T08:52:52.728Z,2112
2019-03-29T08:53:33.250Z,2108
2019-03-29T08:54:14.999Z,2112
2019-03-29T08:54:55.909Z,2104
2019-03-29T08:55:45.394Z,2096
2019-03-29T08:56:17.163Z,2088
2019-03-29T08:56:57.643Z,2088
2019-03-29T08:57:38.103Z,2084
2019-03-29T08:58:19.715Z,2068
2019-03-29T08:58:59.405Z,2064
2019-03-29T08:59:40.025Z,2064
2019-03-29T09:00:23.093Z,2072
2019-03-29T09:01:03.481Z,2072
2019-03-29T09:01:44.490Z,2064
2019-03-29T09:02:25.146Z,2060
2019-03-29T09:03:09.226Z,2052
2019-03-29T09:04:01.428Z,2040
2019-03-29T09:04:31.943Z,2032
2019-03-29T09:05:14.076Z,2032
2019-03-29T09:05:54.682Z,2028
2019-03-29T09:06:35.163Z,2024
2019-03-29T09:07:15.546Z,2024
2019-03-29T09:07:56.060Z,2024
2019-03-29T09:08:38.382Z,2012
2019-03-29T09:09:19.626Z,2012
2019-03-29T09:10:01.124Z,2008
2019-03-29T09:10:41.554Z,1996
2019-03-29T09:11:21.971Z,1988
2019-03-29T09:12:13.614Z,1984
2019-03-29T09:12:43.028Z,1984
2019-03-29T09:13:23.504Z,1980
2019-03-29T09:14:03.963Z,1972
2019-03-29T09:14:44.306Z,1960
2019-03-29T09:15:24.731Z,1948
2019-03-29T09:16:06.498Z,1944
2019-03-29T09:16:46.442Z,1936
2019-03-29T09:17:26.861Z,1944
2019-03-29T09:19:42.241Z,1920
2019-03-29T09:20:24.260Z,1916
2019-03-29T09:21:05.205Z,1912
2019-03-29T09:21:45.663Z,1908
2019-03-29T09:22:26.213Z,1908
2019-03-29T09:23:10.391Z,1916
2019-03-29T09:23:50.682Z,1932
2019-03-29T09:24:31.058Z,1936
2019-03-29T09:25:11.475Z,1936
2019-03-29T09:25:51.914Z,1928
2019-03-29T09:26:32.273Z,1908
2019-03-29T09:27:12.681Z,1884
2019-03-29T09:27:53.098Z,1880
2019-03-29T09:28:34.262Z,1884
2019-03-29T09:29:14.641Z,1900
2019-03-29T09:29:55.070Z,1896
2019-03-29T09:30:35.469Z,1888
2019-03-29T09:31:15.905Z,1888
2019-03-29T09:31:57.116Z,1888
2019-03-29T09:32:36.996Z,1880
2019-03-29T09:33:17.433Z,1880
2019-03-29T09:33:58.652Z,1876
2019-03-29T09:36:12.734Z,1848
2019-03-29T09:36:52.974Z,1832
2019-03-29T09:37:33.408Z,1824
2019-03-29T09:38:13.789Z,1808
2019-03-29T09:38:54.239Z,1816
2019-03-29T09:39:34.608Z,1820
2019-03-29T09:40:15.046Z,1820
2019-03-29T09:40:58.516Z,1812
2019-03-29T09:41:36.168Z,1804
2019-03-29T09:42:28.006Z,1800
2019-03-29T09:43:06.997Z,1796
2019-03-29T09:43:37.532Z,1788
2019-03-29T09:44:18.728Z,1780
2019-03-29T09:44:59.173Z,1784
2019-03-29T09:45:41.055Z,1788
2019-03-29T09:46:20.050Z,1788
2019-03-29T09:47:01.414Z,1776
2019-03-29T09:47:44.962Z,1764
2019-03-29T09:48:25.755Z,1756
2019-03-29T09:49:08.346Z,1752
2019-03-29T09:49:46.766Z,1748
2019-03-29T09:50:27.293Z,1756
2019-03-29T09:51:07.649Z,1748
2019-03-29T09:51:48.152Z,1744
2019-03-29T09:52:29.476Z,1744
2019-03-29T09:53:09.294Z,1744
2019-03-29T09:53:49.716Z,1728
2019-03-29T09:54:30.185Z,1724
2019-03-29T09:55:10.614Z,1728
2019-03-29T09:55:53.362Z,1720
2019-03-29T09:56:38.348Z,1724
2019-03-29T09:57:15.448Z,1720
2019-03-29T09:57:55.049Z,1720
2019-03-29T09:58:36.081Z,1716
2019-03-29T09:59:16.845Z,1704
2019-03-29T09:59:57.149Z,1700
2019-03-29T10:00:37.539Z,1688
2019-03-29T10:01:20.721Z,1676
2019-03-29T10:01:58.478Z,1672
2019-03-29T10:02:41.054Z,1676
2019-03-29T10:03:22.647Z,1676
2019-03-29T10:04:03.149Z,1676
2019-03-29T10:04:43.650Z,1676
2019-03-29T10:05:27.089Z,1680
2019-03-29T10:06:06.973Z,1672
2019-03-29T10:06:47.483Z,1668
2019-03-29T10:07:29.314Z,1664
2019-03-29T10:08:11.422Z,1664
2019-03-29T10:09:05.003Z,1652
2019-03-29T10:09:47.047Z,1652
2019-03-29T10:10:29.471Z,1652
2019-03-29T10:11:09.951Z,1652
2019-03-29T10:11:52.221Z,1660
2019-03-29T10:12:42.995Z,1660
2019-03-29T10:13:13.526Z,1656
2019-03-29T10:13:54.688Z,1640
2019-03-29T10:14:35.123Z,1632
2019-03-29T10:15:17.092Z,1636
2019-03-29T10:15:57.599Z,1636
2019-03-29T10:16:44.398Z,1640
2019-03-29T10:17:25.673Z,1628
2019-03-29T10:18:07.840Z,1636
2019-03-29T10:18:50.212Z,1640
2019-03-29T10:19:30.655Z,1632
2019-03-29T10:21:33.742Z,1620
2019-03-29T10:22:10.782Z,1608
2019-03-29T10:22:52.035Z,1596
2019-03-29T10:25:39.672Z,1592
2019-03-29T10:26:21.161Z,1588
2019-03-29T10:27:02.173Z,1592
2019-03-29T10:27:42.593Z,1584
2019-03-29T10:28:23.944Z,1572
2019-03-29T10:29:05.315Z,1572
2019-03-29T11:06:46.354Z,1544
2019-03-29T11:07:26.857Z,1536
2019-03-29T11:08:07.318Z,1520
2019-03-29T11:08:47.691Z,1532
2019-03-29T11:09:28.113Z,1524
2019-03-29T11:10:08.513Z,1516
2019-03-29T11:10:50.869Z,1516
2019-03-29T11:11:31.414Z,1520
2019-03-29T11:12:11.811Z,1508
2019-03-29T11:12:52.128Z,1500
2019-03-29T11:13:32.596Z,1496
2019-03-29T11:14:13.178Z,1488
2019-03-29T11:14:53.684Z,1484
2019-03-29T11:15:34.084Z,1484
2019-03-29T11:16:19.171Z,1484
2019-03-29T11:16:59.751Z,1476